M/V C0sta Favolosa — ICPK — position and weather

sailwx.info

Track history (hours):
 
Tides and Currents Weather Stations Pressure Air Temp Water Temp Dewpoint Dewpoint Depression Visibility Wind Speed Wind Dir Waves Ship Positions

M/V C0sta Favolosa

Last reported at 2017-Feb-19 23:12 UTC. Time now 2017-Feb-22 04:23 UTC.
Position N 17°53' W 063°21'.

Length 289 m; draft 8.3 m.

Type: Ship. MMSI: 247311100.

Date/timePositionNaut miles runAvg speedWind from/ knotsBaromVisibWave heightAir tempDewpointWater temp
2017-Feb-19 23:12N 17°53' W 063°21'1420.9
2017-Feb-19 22:31N 17°60' W 063°07'4 1.8
2017-Feb-19 20:07N 18°01' W 063°03'5 1.1
2017-Feb-19 15:29N 17°58' W 063°07'1312.4
2017-Feb-19 14:26N 17°45' W 063°06'7014.4
2017-Feb-19 09:33N 16°41' W 062°34'1919.3
2017-Feb-19 08:33N 16°27' W 062°21'4618.9
2017-Feb-19 06:09N 15°54' W 061°48'1718.7
2017-Feb-19 05:15N 15°59' W 061°31'1014.9
2017-Feb-19 04:34N 16°09' W 061°31'5 4.8
2017-Feb-19 03:31N 16°14' W 061°32'0 0.0
2017-Feb-19 02:31N 16°14' W 061°32'0 0.0
2017-Feb-19 01:31N 16°14' W 061°32'0 0.0
2017-Feb-19 00:28N 16°14' W 061°32'0 0.0
2017-Feb-18 23:31N 16°14' W 061°32'0 0.0
2017-Feb-18 22:31N 16°14' W 061°32'0 0.0
2017-Feb-18 21:33N 16°14' W 061°32'0 0.0
2017-Feb-18 20:33N 16°14' W 061°32'0 0.0
2017-Feb-18 19:33N 16°14' W 061°32'0 0.0
2017-Feb-18 18:33N 16°14' W 061°32'0 0.0
2017-Feb-18 17:31N 16°14' W 061°32'0 0.0
2017-Feb-18 16:32N 16°14' W 061°32'0 0.0
2017-Feb-18 15:32N 16°14' W 061°32'0 0.0
2017-Feb-18 14:32N 16°14' W 061°32'0 0.0
2017-Feb-18 13:34N 16°14' W 061°32'0 0.0
2017-Feb-18 12:31N 16°14' W 061°32'0 0.0
2017-Feb-18 11:33N 16°14' W 061°32'4 4.4
2017-Feb-18 10:34N 16°10' W 061°33'9 9.0
2017-Feb-18 09:34N 16°02' W 061°29'1212.2
2017-Feb-18 08:33N 15°50' W 061°32'1412.1
2017-Feb-18 07:25N 15°39' W 061°41'2211.8
2017-Feb-18 05:32N 15°17' W 061°40'23 1.1
2017-Feb-17 09:22N 14°55' W 061°32'1212.5
2017-Feb-17 08:23N 15°07' W 061°37'1012.3
2017-Feb-17 07:33N 15°16' W 061°41'1412.8
2017-Feb-17 06:29N 15°29' W 061°47'3612.1
2017-Feb-17 03:33N 16°02' W 062°00'1211.9
2017-Feb-17 02:33N 16°13' W 062°03'1212.4
2017-Feb-17 01:33N 16°26' W 062°03'1717.2
2017-Feb-17 00:34N 16°43' W 062°03'1817.6
2017-Feb-16 23:33N 17°01' W 062°04'1212.0
2017-Feb-16 22:34N 17°09' W 061°54'4 3.5
2017-Feb-16 21:31N 17°07' W 061°51'0 0.0
2017-Feb-16 20:29N 17°07' W 061°51'0 0.0
2017-Feb-16 19:25N 17°07' W 061°51'0 0.0
2017-Feb-16 18:31N 17°07' W 061°51'0 0.0
2017-Feb-16 17:31N 17°07' W 061°51'0 0.0
2017-Feb-16 16:28N 17°07' W 061°51'0 0.0
2017-Feb-16 15:31N 17°07' W 061°51'0 0.0
2017-Feb-16 14:31N 17°07' W 061°51'0 0.0
2017-Feb-16 13:31N 17°07' W 061°51'0 0.0
2017-Feb-16 12:31N 17°07' W 061°51'0 0.0
2017-Feb-16 11:31N 17°07' W 061°51'0 0.0
2017-Feb-16 10:33N 17°07' W 061°51'6 6.2
2017-Feb-16 09:33N 17°10' W 061°57'1414.5
2017-Feb-16 08:33N 17°17' W 062°10'1212.3
2017-Feb-16 07:33N 17°24' W 062°20'1212.0
2017-Feb-16 06:34N 17°31' W 062°31'1211.9
2017-Feb-16 05:32N 17°38' W 062°41'1311.5
2017-Feb-16 04:24N 17°43' W 062°54'1011.5
2017-Feb-16 03:30N 17°46' W 063°04'1010.5
2017-Feb-16 02:30N 17°56' W 063°07'6 0.8
2017-Feb-15 18:22N 18°01' W 063°03'0 0.1
2017-Feb-15 16:33N 18°01' W 063°03'5 4.8
2017-Feb-15 15:33N 18°00' W 063°08'1816.8
2017-Feb-15 14:29N 17°51' W 063°24'  
2017-Feb-12 19:33N 17°15' W 062°50'39 3.5
2017-Feb-12 08:32N 16°40' W 062°32'1818.8
2017-Feb-12 07:33N 16°27' W 062°19'1918.8
2017-Feb-12 06:33N 16°13' W 062°05'2318.8
2017-Feb-12 05:21N 15°57' W 061°49'1916.8
2017-Feb-12 04:14N 16°01' W 061°30'913.3
2017-Feb-12 03:34N 16°10' W 061°32'5 4.4
2017-Feb-12 02:31N 16°14' W 061°32'0 0.0
2017-Feb-12 01:31N 16°14' W 061°32'0 0.0
2017-Feb-12 00:31N 16°14' W 061°32'0 0.0
2017-Feb-11 23:28N 16°14' W 061°32'0 0.0
2017-Feb-11 22:31N 16°14' W 061°32'0 0.0
2017-Feb-11 21:31N 16°14' W 061°32'0 0.0
2017-Feb-11 20:31N 16°14' W 061°32'0 0.0
2017-Feb-11 19:31N 16°14' W 061°32'0 0.0
2017-Feb-11 18:31N 16°14' W 061°32'0 0.0
2017-Feb-11 17:31N 16°14' W 061°32'0 0.0
2017-Feb-11 16:31N 16°14' W 061°32'0 0.0
2017-Feb-11 15:31N 16°14' W 061°32'0 0.0
2017-Feb-11 14:25N 16°14' W 061°32'0 0.0
2017-Feb-11 13:31N 16°14' W 061°32'0 0.0
2017-Feb-11 12:31N 16°14' W 061°32'0 0.0
2017-Feb-11 11:33N 16°14' W 061°32'5 4.5
2017-Feb-11 10:33N 16°10' W 061°33'1111.3
2017-Feb-11 09:33N 15°59' W 061°29'1312.4
2017-Feb-11 08:33N 15°47' W 061°34'1111.1
2017-Feb-11 07:32N 15°39' W 061°41'2311.4
2017-Feb-11 05:33N 15°16' W 061°40'49 2.7
2017-Feb-10 11:11N 14°36' W 061°10'4712.8
2017-Feb-10 07:31N 15°14' W 061°40'1412.0
2017-Feb-10 06:22N 15°26' W 061°45'3712.7
2017-Feb-10 03:28N 16°00' W 061°60'1213.1
2017-Feb-10 02:33N 16°12' W 062°02'1717.1
2017-Feb-10 01:34N 16°29' W 062°03'1818.0
2017-Feb-10 00:34N 16°47' W 062°03'1817.8
2017-Feb-09 23:33N 17°05' W 062°05'  
Track history (hours):
 
Tides and Currents Weather Stations Pressure Air Temp Water Temp Dewpoint Dewpoint Depression Visibility Wind Speed Wind Dir Waves Ship Positions

M/V C0sta Favolosa

Last reported at 2017-Feb-19 23:12 UTC. Time now 2017-Feb-22 04:23 UTC.
Position N 17°53' W 063°21'.

Length 289 m; draft 8.3 m.

Type: Ship. MMSI: 247311100.

Date/timePositionNaut miles runAvg speedWind from/ knotsBaromVisibWave heightAir tempDewpointWater temp
2017-Feb-19 23:12N 17°53' W 063°21'1420.9
2017-Feb-19 22:31N 17°60' W 063°07'4 1.8
2017-Feb-19 20:07N 18°01' W 063°03'5 1.1
2017-Feb-19 15:29N 17°58' W 063°07'1312.4
2017-Feb-19 14:26N 17°45' W 063°06'7014.4
2017-Feb-19 09:33N 16°41' W 062°34'1919.3
2017-Feb-19 08:33N 16°27' W 062°21'4618.9
2017-Feb-19 06:09N 15°54' W 061°48'1718.7
2017-Feb-19 05:15N 15°59' W 061°31'1014.9
2017-Feb-19 04:34N 16°09' W 061°31'5 4.8
2017-Feb-19 03:31N 16°14' W 061°32'0 0.0
2017-Feb-19 02:31N 16°14' W 061°32'0 0.0
2017-Feb-19 01:31N 16°14' W 061°32'0 0.0
2017-Feb-19 00:28N 16°14' W 061°32'0 0.0
2017-Feb-18 23:31N 16°14' W 061°32'0 0.0
2017-Feb-18 22:31N 16°14' W 061°32'0 0.0
2017-Feb-18 21:33N 16°14' W 061°32'0 0.0
2017-Feb-18 20:33N 16°14' W 061°32'0 0.0
2017-Feb-18 19:33N 16°14' W 061°32'0 0.0
2017-Feb-18 18:33N 16°14' W 061°32'0 0.0
2017-Feb-18 17:31N 16°14' W 061°32'0 0.0
2017-Feb-18 16:32N 16°14' W 061°32'0 0.0
2017-Feb-18 15:32N 16°14' W 061°32'0 0.0
2017-Feb-18 14:32N 16°14' W 061°32'0 0.0
2017-Feb-18 13:34N 16°14' W 061°32'0 0.0
2017-Feb-18 12:31N 16°14' W 061°32'0 0.0
2017-Feb-18 11:33N 16°14' W 061°32'4 4.4
2017-Feb-18 10:34N 16°10' W 061°33'9 9.0
2017-Feb-18 09:34N 16°02' W 061°29'1212.2
2017-Feb-18 08:33N 15°50' W 061°32'1412.1
2017-Feb-18 07:25N 15°39' W 061°41'2211.8
2017-Feb-18 05:32N 15°17' W 061°40'23 1.1
2017-Feb-17 09:22N 14°55' W 061°32'1212.5
2017-Feb-17 08:23N 15°07' W 061°37'1012.3
2017-Feb-17 07:33N 15°16' W 061°41'1412.8
2017-Feb-17 06:29N 15°29' W 061°47'3612.1
2017-Feb-17 03:33N 16°02' W 062°00'1211.9
2017-Feb-17 02:33N 16°13' W 062°03'1212.4
2017-Feb-17 01:33N 16°26' W 062°03'1717.2
2017-Feb-17 00:34N 16°43' W 062°03'1817.6
2017-Feb-16 23:33N 17°01' W 062°04'1212.0
2017-Feb-16 22:34N 17°09' W 061°54'4 3.5
2017-Feb-16 21:31N 17°07' W 061°51'0 0.0
2017-Feb-16 20:29N 17°07' W 061°51'0 0.0
2017-Feb-16 19:25N 17°07' W 061°51'0 0.0
2017-Feb-16 18:31N 17°07' W 061°51'0 0.0
2017-Feb-16 17:31N 17°07' W 061°51'0 0.0
2017-Feb-16 16:28N 17°07' W 061°51'0 0.0
2017-Feb-16 15:31N 17°07' W 061°51'0 0.0
2017-Feb-16 14:31N 17°07' W 061°51'0 0.0
2017-Feb-16 13:31N 17°07' W 061°51'0 0.0
2017-Feb-16 12:31N 17°07' W 061°51'0 0.0
2017-Feb-16 11:31N 17°07' W 061°51'0 0.0
2017-Feb-16 10:33N 17°07' W 061°51'6 6.2
2017-Feb-16 09:33N 17°10' W 061°57'1414.5
2017-Feb-16 08:33N 17°17' W 062°10'1212.3
2017-Feb-16 07:33N 17°24' W 062°20'1212.0
2017-Feb-16 06:34N 17°31' W 062°31'1211.9
2017-Feb-16 05:32N 17°38' W 062°41'1311.5
2017-Feb-16 04:24N 17°43' W 062°54'1011.5
2017-Feb-16 03:30N 17°46' W 063°04'1010.5
2017-Feb-16 02:30N 17°56' W 063°07'6 0.8
2017-Feb-15 18:22N 18°01' W 063°03'0 0.1
2017-Feb-15 16:33N 18°01' W 063°03'5 4.8
2017-Feb-15 15:33N 18°00' W 063°08'1816.8
2017-Feb-15 14:29N 17°51' W 063°24'  
2017-Feb-12 19:33N 17°15' W 062°50'39 3.5
2017-Feb-12 08:32N 16°40' W 062°32'1818.8
2017-Feb-12 07:33N 16°27' W 062°19'1918.8
2017-Feb-12 06:33N 16°13' W 062°05'2318.8
2017-Feb-12 05:21N 15°57' W 061°49'1916.8
2017-Feb-12 04:14N 16°01' W 061°30'913.3
2017-Feb-12 03:34N 16°10' W 061°32'5 4.4
2017-Feb-12 02:31N 16°14' W 061°32'0 0.0
2017-Feb-12 01:31N 16°14' W 061°32'0 0.0
2017-Feb-12 00:31N 16°14' W 061°32'0 0.0
2017-Feb-11 23:28N 16°14' W 061°32'0 0.0
2017-Feb-11 22:31N 16°14' W 061°32'0 0.0
2017-Feb-11 21:31N 16°14' W 061°32'0 0.0
2017-Feb-11 20:31N 16°14' W 061°32'0 0.0
2017-Feb-11 19:31N 16°14' W 061°32'0 0.0
2017-Feb-11 18:31N 16°14' W 061°32'0 0.0
2017-Feb-11 17:31N 16°14' W 061°32'0 0.0
2017-Feb-11 16:31N 16°14' W 061°32'0 0.0
2017-Feb-11 15:31N 16°14' W 061°32'0 0.0
2017-Feb-11 14:25N 16°14' W 061°32'0 0.0
2017-Feb-11 13:31N 16°14' W 061°32'0 0.0
2017-Feb-11 12:31N 16°14' W 061°32'0 0.0
2017-Feb-11 11:33N 16°14' W 061°32'5 4.5
2017-Feb-11 10:33N 16°10' W 061°33'1111.3
2017-Feb-11 09:33N 15°59' W 061°29'1312.4
2017-Feb-11 08:33N 15°47' W 061°34'1111.1
2017-Feb-11 07:32N 15°39' W 061°41'2311.4
2017-Feb-11 05:33N 15°16' W 061°40'49 2.7
2017-Feb-10 11:11N 14°36' W 061°10'4712.8
2017-Feb-10 07:31N 15°14' W 061°40'1412.0
2017-Feb-10 06:22N 15°26' W 061°45'3712.7
2017-Feb-10 03:28N 16°00' W 061°60'1213.1
2017-Feb-10 02:33N 16°12' W 062°02'1717.1
2017-Feb-10 01:34N 16°29' W 062°03'1818.0
2017-Feb-10 00:34N 16°47' W 062°03'1817.8
2017-Feb-09 23:33N 17°05' W 062°05'  

Dump ship's entire track history